Weather at Ekwok Airport

Public forecast

Using degrees Fahrenheit for public forecast. Weather courtesy of forecast.io.

Closest aviation weather report (METAR) to Ekwok Airport

Closest report is New Stuyahok Airport, 7.1 nm (13.1 km) NE. Retrieved 2021/06/23 01:56 UTC (53 minutes ago):

PANW 230156Z AUTO 09015G21KT 10SM BKN055 OVC095 14/08 A2974 RMK AO2 SLP075 T01440083

Closest aviation forecast (TAF) to Ekwok Airport

Closest forecast is Dillingham Airport, 36.9 nm (68.3 km) WSW. Retrieved 2021-06-23 00:42 UTC (2 hours ago):

TAF PADL 222340Z 2300/2324 08006KT P6SM -RA OVC035 FM231200 03015G25KT P6SM VCSH OVC050 FM231700 03025G35KT P6SM -RA OVC050